Time;durP1;ratioP1;P1;durP2;ratioP2;P2;SDS_P1;SDS_P2;PMS_P1;PMS_P2;Temp;Humidity;BMP_temperature;BMP_pressure;BME280_temperature;BME280_humidity;BME280_pressure;Samples;Min_cycle;Max_cycle;Signal;HPM_P1;HPM_P2
2022/01/14 00:00:41;;;;;;;5.38;2.90;;;;;;;;;;4971284;28;20054;-73
2022/01/14 00:03:07;;;;;;;6.03;2.58;;;;;;;;;;4972203;28;20047;-73
2022/01/14 00:05:33;;;;;;;7.68;2.97;;;;;;;;;;4972293;28;20053;-75
2022/01/14 00:07:59;;;;;;;15.02;3.13;;;;;;;;;;4972739;28;20490;-73
2022/01/14 00:10:29;;;;;;;7.97;2.70;;;;;;;;;;4972007;28;20047;-73
2022/01/14 00:13:04;;;;;;;7.47;3.05;;;;;;;;;;4971550;28;20515;-72
2022/01/14 00:15:34;;;;;;;8.48;3.40;;;;;;;;;;4972151;28;20051;-72
2022/01/14 00:18:01;;;;;;;5.82;2.50;;;;;;;;;;4972392;28;20090;-72
2022/01/14 00:20:28;;;;;;;6.60;2.95;;;;;;;;;;4972328;28;20144;-72
2022/01/14 00:22:54;;;;;;;7.70;2.95;;;;;;;;;;4969469;28;20510;-72
2022/01/14 00:33:27;;;;;;;6.68;3.03;;;;;;;;;;4971806;28;20074;-72
2022/01/14 00:35:53;;;;;;;7.88;3.03;;;;;;;;;;4971380;28;20486;-72
2022/01/14 00:38:20;;;;;;;6.97;3.03;;;;;;;;;;4971709;28;20421;-72
2022/01/14 00:40:46;;;;;;;11.60;3.10;;;;;;;;;;4971519;28;20053;-72
2022/01/14 00:43:12;;;;;;;10.18;3.13;;;;;;;;;;4971588;28;20416;-72
2022/01/14 00:45:39;;;;;;;8.00;2.50;;;;;;;;;;4971781;28;20413;-72
2022/01/14 00:48:05;;;;;;;9.05;3.20;;;;;;;;;;4971543;28;20098;-72
2022/01/14 00:50:33;;;;;;;8.00;3.17;;;;;;;;;;4971492;28;20047;-72
2022/01/14 00:52:59;;;;;;;5.97;2.72;;;;;;;;;;4970183;28;20464;-72
2022/01/14 00:55:28;;;;;;;7.32;2.72;;;;;;;;;;4971296;28;20049;-72
2022/01/14 01:00:28;;;;;;;7.28;3.00;;;;;;;;;;4971234;28;20047;-72
2022/01/14 01:02:54;;;;;;;8.77;2.85;;;;;;;;;;4971464;28;20429;-72
2022/01/14 01:05:20;;;;;;;7.57;3.10;;;;;;;;;;4971482;28;20476;-72
2022/01/14 01:08:03;;;;;;;6.95;2.97;;;;;;;;;;4971421;28;20049;-72
2022/01/14 01:10:30;;;;;;;6.20;2.72;;;;;;;;;;4970640;28;20046;-72
2022/01/14 01:13:05;;;;;;;8.00;3.10;;;;;;;;;;4971420;28;20130;-72
2022/01/14 01:15:31;;;;;;;8.60;3.15;;;;;;;;;;4971156;28;20495;-72
2022/01/14 01:17:57;;;;;;;6.80;3.90;;;;;;;;;;4970872;28;20047;-72
2022/01/14 01:20:23;;;;;;;7.78;3.25;;;;;;;;;;4971311;28;20058;-72
2022/01/14 01:22:50;;;;;;;11.35;3.40;;;;;;;;;;4970079;28;20050;-72
2022/01/14 01:25:21;;;;;;;5.97;2.63;;;;;;;;;;4970986;28;20137;-72
2022/01/14 01:27:49;;;;;;;8.20;3.75;;;;;;;;;;4970568;28;20074;-72
2022/01/14 01:30:37;;;;;;;6.70;2.97;;;;;;;;;;4970942;28;20102;-72
2022/01/14 01:33:04;;;;;;;7.03;2.83;;;;;;;;;;4970535;28;20575;-72
2022/01/14 01:35:30;;;;;;;8.40;3.42;;;;;;;;;;4970795;28;20089;-72
2022/01/14 01:37:56;;;;;;;7.20;3.05;;;;;;;;;;4970547;28;20043;-72
2022/01/14 01:40:23;;;;;;;6.85;2.90;;;;;;;;;;4970191;28;20417;-72
2022/01/14 01:42:49;;;;;;;6.53;2.90;;;;;;;;;;4970452;28;20517;-72
2022/01/14 01:45:21;;;;;;;7.88;3.03;;;;;;;;;;4970856;28;20557;-72
2022/01/14 01:47:50;;;;;;;6.60;2.97;;;;;;;;;;4970493;28;20133;-72
2022/01/14 01:50:16;;;;;;;;;;;;;;;;;;4970462;28;20051;-72
2022/01/14 01:52:42;;;;;;;9.80;3.38;;;;;;;;;;4970633;28;20354;-71
2022/01/14 01:55:09;;;;;;;9.48;3.13;;;;;;;;;;4970212;28;20050;-72
2022/01/14 01:57:35;;;;;;;7.97;3.53;;;;;;;;;;4970399;28;20045;-72
2022/01/14 02:00:02;;;;;;;6.50;3.97;;;;;;;;;;4970428;28;20050;-71
2022/01/14 02:02:28;;;;;;;5.68;2.92;;;;;;;;;;4969720;28;20129;-71
2022/01/14 02:04:55;;;;;;;6.57;3.28;;;;;;;;;;4970201;28;20050;-71
2022/01/14 02:07:21;;;;;;;6.80;3.20;;;;;;;;;;4970453;28;20513;-71
2022/01/14 02:09:47;;;;;;;6.78;3.10;;;;;;;;;;4970250;28;20493;-71
2022/01/14 02:12:13;;;;;;;9.02;3.70;;;;;;;;;;4969671;28;20082;-71
2022/01/14 02:19:44;;;;;;;;;;;;;;;;;;4970466;28;20054;-71
2022/01/14 02:22:11;;;;;;;8.75;2.88;;;;;;;;;;4969868;28;19968;-72
2022/01/14 02:27:08;;;;;;;8.07;3.33;;;;;;;;;;4969426;28;20137;-71
2022/01/14 02:29:34;;;;;;;7.53;2.88;;;;;;;;;;4970264;28;20046;-71
2022/01/14 02:32:00;;;;;;;6.38;3.10;;;;;;;;;;4970118;28;20133;-71
2022/01/14 02:34:27;;;;;;;7.00;3.70;;;;;;;;;;4970042;28;20061;-71
2022/01/14 02:36:53;;;;;;;8.88;3.70;;;;;;;;;;4969826;28;20102;-71
2022/01/14 02:39:20;;;;;;;12.25;3.35;;;;;;;;;;4969951;28;20094;-70
2022/01/14 02:41:47;;;;;;;8.23;3.22;;;;;;;;;;4969484;28;20420;-70
2022/01/14 02:44:22;;;;;;;8.50;3.70;;;;;;;;;;4969567;28;20137;-71
2022/01/14 02:46:55;;;;;;;8.13;3.60;;;;;;;;;;4973041;28;20429;-71
2022/01/14 02:49:22;;;;;;;14.85;3.65;;;;;;;;;;4973604;28;20054;-71
2022/01/14 02:51:48;;;;;;;7.78;3.58;;;;;;;;;;4956449;28;20078;-73
2022/01/14 02:54:20;;;;;;;12.90;3.38;;;;;;;;;;4973562;28;20055;-73
2022/01/14 02:56:47;;;;;;;12.82;3.63;;;;;;;;;;4973794;28;20055;-72
2022/01/14 02:59:16;;;;;;;7.68;3.45;;;;;;;;;;4973574;28;20043;-72
2022/01/14 03:01:43;;;;;;;13.05;3.58;;;;;;;;;;4973752;28;20497;-72
2022/01/14 03:04:10;;;;;;;11.77;3.40;;;;;;;;;;4973437;28;20051;-71
2022/01/14 03:06:36;;;;;;;7.57;3.35;;;;;;;;;;4973175;28;20051;-71
2022/01/14 03:09:02;;;;;;;11.10;3.47;;;;;;;;;;4972389;28;20051;-71
2022/01/14 03:11:33;;;;;;;6.72;3.45;;;;;;;;;;4973531;28;20043;-71
2022/01/14 03:13:59;;;;;;;9.13;3.35;;;;;;;;;;4973178;28;20133;-71
2022/01/14 03:16:26;;;;;;;7.40;3.47;;;;;;;;;;4973136;28;20190;-71
2022/01/14 03:18:54;;;;;;;6.85;3.20;;;;;;;;;;4973563;28;20047;-71
2022/01/14 03:21:29;;;;;;;11.95;3.90;;;;;;;;;;4972857;28;20057;-71
2022/01/14 03:24:18;;;;;;;9.75;3.65;;;;;;;;;;4973162;28;20105;-72
2022/01/14 03:26:45;;;;;;;11.70;3.38;;;;;;;;;;4972215;28;20058;-72
2022/01/14 03:29:12;;;;;;;8.25;3.67;;;;;;;;;;4972869;28;20049;-71
2022/01/14 03:31:38;;;;;;;7.65;3.30;;;;;;;;;;4973314;28;20082;-71
2022/01/14 03:34:04;;;;;;;6.70;3.45;;;;;;;;;;4973035;28;20050;-71
2022/01/14 03:36:30;;;;;;;8.63;3.55;;;;;;;;;;4972649;28;20047;-71
2022/01/14 03:38:56;;;;;;;8.48;3.67;;;;;;;;;;4973020;28;20054;-71
2022/01/14 03:41:22;;;;;;;10.35;3.55;;;;;;;;;;4972809;28;20042;-71
2022/01/14 03:43:48;;;;;;;7.78;3.75;;;;;;;;;;4973136;28;20053;-73
2022/01/14 03:46:14;;;;;;;10.10;3.75;;;;;;;;;;4972484;28;20120;-72
2022/01/14 03:48:40;;;;;;;7.97;3.42;;;;;;;;;;4973073;28;20509;-72
2022/01/14 03:51:06;;;;;;;8.93;4.20;;;;;;;;;;4972863;28;20043;-72
2022/01/14 03:53:32;;;;;;;6.13;3.20;;;;;;;;;;4972925;28;20046;-72
2022/01/14 03:55:59;;;;;;;7.85;3.20;;;;;;;;;;4972754;28;20162;-72
2022/01/14 03:58:25;;;;;;;8.65;3.40;;;;;;;;;;4969890;28;20413;-72
2022/01/14 04:00:51;;;;;;;8.57;3.70;;;;;;;;;;4971556;28;20461;-72
2022/01/14 04:03:17;;;;;;;6.80;3.42;;;;;;;;;;4972440;28;20130;-72
2022/01/14 04:05:43;;;;;;;8.25;3.78;;;;;;;;;;4972580;28;20053;-72
2022/01/14 04:08:09;;;;;;;6.63;3.30;;;;;;;;;;4971801;28;20129;-72
2022/01/14 04:10:36;;;;;;;6.30;3.22;;;;;;;;;;4972383;28;20053;-72
2022/01/14 04:13:06;;;;;;;8.50;3.78;;;;;;;;;;4972352;28;20386;-73
2022/01/14 04:15:42;;;;;;;6.75;3.45;;;;;;;;;;4971016;28;20050;-72
2022/01/14 04:18:15;;;;;;;6.43;3.40;;;;;;;;;;4972213;28;20047;-72
2022/01/14 04:20:41;;;;;;;9.20;4.38;;;;;;;;;;4971689;28;20066;-72
2022/01/14 04:23:08;;;;;;;7.60;3.63;;;;;;;;;;4971878;28;20090;-72
2022/01/14 04:25:35;;;;;;;7.53;3.30;;;;;;;;;;4954972;28;20406;-72
2022/01/14 04:28:01;;;;;;;6.95;3.30;;;;;;;;;;4972035;28;20417;-72
2022/01/14 04:30:27;;;;;;;6.50;3.42;;;;;;;;;;4971564;28;20058;-73
2022/01/14 04:32:53;;;;;;;6.57;3.58;;;;;;;;;;4972246;28;20047;-72
2022/01/14 04:35:19;;;;;;;6.78;3.70;;;;;;;;;;4971659;28;20081;-72
2022/01/14 04:37:46;;;;;;;10.98;3.92;;;;;;;;;;4972030;28;20054;-72
2022/01/14 04:40:15;;;;;;;7.15;3.47;;;;;;;;;;4971721;28;20050;-72
2022/01/14 04:42:42;;;;;;;;;;;;;;;;;;4971882;28;20046;-72
2022/01/14 04:45:09;;;;;;;8.95;3.90;;;;;;;;;;4971540;28;19976;-72
2022/01/14 04:47:44;;;;;;;8.18;4.38;;;;;;;;;;4971925;28;20065;-72
2022/01/14 04:50:12;;;;;;;8.23;4.20;;;;;;;;;;4971498;28;20141;-72
2022/01/14 04:52:39;;;;;;;8.57;4.03;;;;;;;;;;4971775;28;20055;-72
2022/01/14 04:55:06;;;;;;;8.75;4.00;;;;;;;;;;4971016;28;20543;-72
2022/01/14 04:57:32;;;;;;;6.70;3.67;;;;;;;;;;4970255;28;20046;-72
2022/01/14 04:59:58;;;;;;;11.05;4.15;;;;;;;;;;4971457;28;20077;-72
2022/01/14 05:02:25;;;;;;;7.82;3.67;;;;;;;;;;4971550;28;20058;-73
2022/01/14 05:04:54;;;;;;;9.60;3.88;;;;;;;;;;4971243;28;20097;-73
2022/01/14 05:07:25;;;;;;;7.35;3.72;;;;;;;;;;4970717;28;20047;-73
2022/01/14 05:12:31;;;;;;;6.00;3.87;;;;;;;;;;4971179;28;20050;-74
2022/01/14 05:14:57;;;;;;;7.78;3.55;;;;;;;;;;4971028;28;20286;-72
2022/01/14 05:17:23;;;;;;;9.25;3.90;;;;;;;;;;4971119;28;20117;-72
2022/01/14 05:19:49;;;;;;;7.40;4.07;;;;;;;;;;4970733;28;20061;-72
2022/01/14 05:22:15;;;;;;;8.75;4.15;;;;;;;;;;4970932;28;20047;-72
2022/01/14 05:24:41;;;;;;;6.55;3.58;;;;;;;;;;4970812;28;20049;-72
2022/01/14 05:27:07;;;;;;;7.47;3.85;;;;;;;;;;4970863;28;20570;-72
2022/01/14 05:29:33;;;;;;;8.75;3.92;;;;;;;;;;4970952;28;20074;-72
2022/01/14 05:32:04;;;;;;;8.48;3.75;;;;;;;;;;4970845;28;20521;-72
2022/01/14 05:34:31;;;;;;;9.63;4.20;;;;;;;;;;4970450;28;20061;-72
2022/01/14 05:36:57;;;;;;;8.68;4.15;;;;;;;;;;4970969;28;20050;-72
2022/01/14 05:39:24;;;;;;;9.88;4.28;;;;;;;;;;4971013;28;20201;-73
2022/01/14 05:41:50;;;;;;;6.40;3.47;;;;;;;;;;4970415;28;20060;-72
2022/01/14 05:44:17;;;;;;;8.65;4.18;;;;;;;;;;4970599;28;20050;-72
2022/01/14 05:46:43;;;;;;;7.90;3.50;;;;;;;;;;4969072;28;20058;-72
2022/01/14 05:49:10;;;;;;;8.30;4.15;;;;;;;;;;4970384;28;20047;-72
2022/01/14 05:51:36;;;;;;;7.30;3.75;;;;;;;;;;4969584;28;20487;-72
2022/01/14 05:54:02;;;;;;;8.23;4.03;;;;;;;;;;4969066;28;20465;-72
2022/01/14 05:56:28;;;;;;;9.65;3.92;;;;;;;;;;4970679;28;20065;-72
2022/01/14 05:58:54;;;;;;;7.43;3.80;;;;;;;;;;4953231;28;20118;-72
2022/01/14 06:01:21;;;;;;;10.52;4.18;;;;;;;;;;4970442;28;20417;-74
2022/01/14 06:03:47;;;;;;;8.18;3.70;;;;;;;;;;4970318;28;20051;-74
2022/01/14 06:06:13;;;;;;;11.35;3.65;;;;;;;;;;4969699;28;20062;-71
2022/01/14 06:08:39;;;;;;;11.60;3.70;;;;;;;;;;4970472;28;20047;-71
2022/01/14 06:11:05;;;;;;;13.93;3.60;;;;;;;;;;4970339;28;20469;-71
2022/01/14 06:13:31;;;;;;;10.82;4.18;;;;;;;;;;4970082;28;20696;-71
2022/01/14 06:15:57;;;;;;;9.65;4.00;;;;;;;;;;4970064;28;20137;-71
2022/01/14 06:18:23;;;;;;;13.52;4.45;;;;;;;;;;4968897;28;20047;-71
2022/01/14 06:20:49;;;;;;;9.15;3.80;;;;;;;;;;4968922;28;20046;-72
2022/01/14 06:23:15;;;;;;;12.90;3.42;;;;;;;;;;4968765;28;20324;-72
2022/01/14 06:25:42;;;;;;;8.73;4.07;;;;;;;;;;4970295;28;20426;-72
2022/01/14 06:28:08;;;;;;;6.85;3.72;;;;;;;;;;4970033;28;20050;-71
2022/01/14 06:30:34;;;;;;;9.20;3.78;;;;;;;;;;4970092;28;20503;-71
2022/01/14 06:33:00;;;;;;;8.05;4.18;;;;;;;;;;4969810;28;20445;-71
2022/01/14 06:35:26;;;;;;;7.43;3.25;;;;;;;;;;4970168;28;20354;-71
2022/01/14 06:37:52;;;;;;;8.32;3.80;;;;;;;;;;4970040;28;20123;-71
2022/01/14 06:40:18;;;;;;;7.90;4.07;;;;;;;;;;4969927;28;20602;-71
2022/01/14 06:42:44;;;;;;;7.25;3.63;;;;;;;;;;4970017;28;20047;-71
2022/01/14 06:45:10;;;;;;;8.52;4.00;;;;;;;;;;4969837;28;20133;-71
2022/01/14 06:47:36;;;;;;;10.52;3.80;;;;;;;;;;4969505;28;20055;-71
2022/01/14 06:50:03;;;;;;;6.47;3.90;;;;;;;;;;4969531;28;20074;-71
2022/01/14 06:52:29;;;;;;;9.52;4.38;;;;;;;;;;4969549;28;20046;-71
2022/01/14 06:54:55;;;;;;;7.47;3.97;;;;;;;;;;4970027;28;20054;-71
2022/01/14 06:57:24;;;;;;;7.57;3.83;;;;;;;;;;4967967;28;20113;-71
2022/01/14 06:59:50;;;;;;;7.03;3.78;;;;;;;;;;4969730;28;20054;-71
2022/01/14 07:02:16;;;;;;;6.97;3.78;;;;;;;;;;4969708;28;20047;-71
2022/01/14 07:04:42;;;;;;;8.77;3.80;;;;;;;;;;4969757;28;20499;-71
2022/01/14 07:07:08;;;;;;;7.43;3.85;;;;;;;;;;4969423;28;20170;-71
2022/01/14 07:09:35;;;;;;;7.72;3.63;;;;;;;;;;4969162;28;20050;-71
2022/01/14 07:12:02;;;;;;;8.70;4.15;;;;;;;;;;4969702;28;20054;-71
2022/01/14 07:14:29;;;;;;;8.00;3.63;;;;;;;;;;4969754;28;20062;-71
2022/01/14 07:16:55;;;;;;;6.45;3.42;;;;;;;;;;4969575;28;20047;-72
2022/01/14 07:19:22;;;;;;;8.63;3.90;;;;;;;;;;4969372;28;20100;-71
2022/01/14 07:21:49;;;;;;;7.38;3.88;;;;;;;;;;4969447;28;20050;-71
2022/01/14 07:24:15;;;;;;;6.65;3.45;;;;;;;;;;4968922;28;20051;-71
2022/01/14 07:26:41;;;;;;;7.72;4.32;;;;;;;;;;4969271;28;20706;-71
2022/01/14 07:29:08;;;;;;;7.53;3.83;;;;;;;;;;4969369;28;20046;-71
2022/01/14 07:31:34;;;;;;;7.18;3.88;;;;;;;;;;4969452;28;20524;-75
2022/01/14 07:34:01;;;;;;;7.90;3.65;;;;;;;;;;4973029;28;20089;-75
2022/01/14 07:36:27;;;;;;;7.70;3.92;;;;;;;;;;4970886;28;20148;-73
2022/01/14 07:38:53;;;;;;;7.57;3.90;;;;;;;;;;4973085;28;20058;-73
2022/01/14 07:41:19;;;;;;;7.65;3.60;;;;;;;;;;4972745;28;20051;-73
2022/01/14 07:43:48;;;;;;;6.55;3.13;;;;;;;;;;4973935;28;20047;-73
2022/01/14 07:46:14;;;;;;;6.38;3.00;;;;;;;;;;4992080;28;20066;-74
2022/01/14 07:48:40;;;;;;;8.82;3.58;;;;;;;;;;4991795;28;20050;-73
2022/01/14 07:51:08;;;;;;;8.25;3.75;;;;;;;;;;4992195;28;20160;-73
2022/01/14 07:53:34;;;;;;;6.72;3.17;;;;;;;;;;4991162;28;20090;-73
2022/01/14 07:56:00;;;;;;;6.40;3.42;;;;;;;;;;4991990;28;20038;-73
2022/01/14 07:58:27;;;;;;;7.63;3.40;;;;;;;;;;4991599;28;20065;-73
2022/01/14 08:00:53;;;;;;;8.15;3.40;;;;;;;;;;4991910;28;20043;-74
2022/01/14 08:03:19;;;;;;;15.70;4.20;;;;;;;;;;4991931;28;20477;-73
2022/01/14 08:05:47;;;;;;;9.35;3.53;;;;;;;;;;4990884;28;20151;-75
2022/01/14 08:08:13;;;;;;;9.27;3.00;;;;;;;;;;4991883;28;20193;-77
2022/01/14 08:10:39;;;;;;;10.48;3.03;;;;;;;;;;4990687;28;20058;-75
2022/01/14 08:13:05;;;;;;;11.77;3.50;;;;;;;;;;4991652;28;20046;-74
2022/01/14 08:15:31;;;;;;;7.50;3.22;;;;;;;;;;4991703;28;20046;-74
2022/01/14 08:18:00;;;;;;;8.05;3.05;;;;;;;;;;4991265;28;20049;-75
2022/01/14 08:20:26;;;;;;;4.90;2.75;;;;;;;;;;4991609;28;20046;-76
2022/01/14 08:22:52;;;;;;;8.15;2.90;;;;;;;;;;4991717;28;20054;-75
2022/01/14 08:25:18;;;;;;;6.50;3.33;;;;;;;;;;4991108;28;20108;-75
2022/01/14 08:27:44;;;;;;;6.93;2.80;;;;;;;;;;4991505;28;20505;-74
2022/01/14 08:30:10;;;;;;;8.18;3.17;;;;;;;;;;4991630;28;20042;-73
2022/01/14 08:32:36;;;;;;;11.88;3.28;;;;;;;;;;4991469;28;20044;-74
2022/01/14 08:35:02;;;;;;;6.60;3.13;;;;;;;;;;4991497;28;20046;-73
2022/01/14 08:37:28;;;;;;;6.43;3.10;;;;;;;;;;4991531;28;20060;-73
2022/01/14 08:39:54;;;;;;;6.53;2.75;;;;;;;;;;4991031;28;20133;-73
2022/01/14 08:42:20;;;;;;;7.70;3.13;;;;;;;;;;4990149;28;20133;-73
2022/01/14 08:44:47;;;;;;;5.35;2.63;;;;;;;;;;4990827;28;20038;-73
2022/01/14 08:47:13;;;;;;;8.95;3.60;;;;;;;;;;4990621;28;20094;-73
2022/01/14 08:49:40;;;;;;;6.40;2.88;;;;;;;;;;4991171;28;20046;-73
2022/01/14 08:52:07;;;;;;;6.97;3.20;;;;;;;;;;4991102;28;20050;-73
2022/01/14 08:54:33;;;;;;;7.53;2.58;;;;;;;;;;4990057;28;20134;-72
2022/01/14 08:57:02;;;;;;;10.52;3.08;;;;;;;;;;4989715;28;20116;-73
2022/01/14 08:59:28;;;;;;;7.95;2.97;;;;;;;;;;4991280;28;20062;-73
2022/01/14 09:01:54;;;;;;;6.60;3.00;;;;;;;;;;4990638;28;20471;-71
2022/01/14 09:04:20;;;;;;;13.02;2.97;;;;;;;;;;4989819;28;20047;-74
2022/01/14 09:06:47;;;;;;;7.40;2.90;;;;;;;;;;4991113;28;20042;-74
2022/01/14 09:09:13;;;;;;;8.90;2.78;;;;;;;;;;4989607;28;20389;-73
2022/01/14 09:11:39;;;;;;;7.55;2.78;;;;;;;;;;4991137;28;20058;-73
2022/01/14 09:14:06;;;;;;;7.20;3.00;;;;;;;;;;4989114;28;20038;-75
2022/01/14 09:16:32;;;;;;;9.40;2.88;;;;;;;;;;4990585;28;20423;-73
2022/01/14 09:18:58;;;;;;;22.75;2.88;;;;;;;;;;4990996;28;20125;-72
2022/01/14 09:21:24;;;;;;;8.02;2.20;;;;;;;;;;4990411;28;20057;-74
2022/01/14 09:23:54;;;;;;;5.57;2.35;;;;;;;;;;4966668;28;20382;-73
2022/01/14 09:26:20;;;;;;;;;;;;;;;;;;4970399;28;20049;-72
2022/01/14 09:28:46;;;;;;;4.97;2.42;;;;;;;;;;4970430;28;19926;-73
2022/01/14 09:31:12;;;;;;;7.18;2.47;;;;;;;;;;4970672;28;20072;-73
2022/01/14 09:33:38;;;;;;;8.48;2.53;;;;;;;;;;4971147;28;20051;-72
2022/01/14 09:36:05;;;;;;;5.50;2.45;;;;;;;;;;4970471;28;20402;-73
2022/01/14 09:38:31;;;;;;;5.10;2.22;;;;;;;;;;4970854;28;20053;-72
2022/01/14 09:40:57;;;;;;;6.07;2.38;;;;;;;;;;4971101;28;20085;-74
2022/01/14 09:43:25;;;;;;;5.75;2.10;;;;;;;;;;4970970;28;20054;-72
2022/01/14 09:45:54;;;;;;;5.03;2.15;;;;;;;;;;4968915;28;20058;-73
2022/01/14 09:48:21;;;;;;;7.60;2.00;;;;;;;;;;4968772;28;20061;-73
2022/01/14 09:50:48;;;;;;;8.20;2.80;;;;;;;;;;4971027;28;20403;-73
2022/01/14 09:53:15;;;;;;;6.72;2.28;;;;;;;;;;4970134;28;20085;-74
2022/01/14 09:55:42;;;;;;;6.47;2.60;;;;;;;;;;4970557;28;20105;-72
2022/01/14 09:58:08;;;;;;;4.72;2.17;;;;;;;;;;4970415;28;20578;-71
2022/01/14 10:00:35;;;;;;;5.90;2.72;;;;;;;;;;4970026;28;20051;-72
2022/01/14 10:03:01;;;;;;;6.15;2.28;;;;;;;;;;4970373;28;20049;-74
2022/01/14 10:05:32;;;;;;;5.68;2.08;;;;;;;;;;4970502;28;20055;-72
2022/01/14 10:08:08;;;;;;;5.13;2.08;;;;;;;;;;4970142;28;20098;-73
2022/01/14 10:10:37;;;;;;;6.60;2.30;;;;;;;;;;4970689;28;20060;-73
2022/01/14 10:13:21;;;;;;;7.15;2.47;;;;;;;;;;4970149;28;20417;-73
2022/01/14 10:15:51;;;;;;;6.53;2.25;;;;;;;;;;4969194;28;20493;-74
2022/01/14 10:18:18;;;;;;;5.40;2.05;;;;;;;;;;4968956;28;20051;-73
2022/01/14 10:20:48;;;;;;;6.63;2.30;;;;;;;;;;4970312;28;20126;-73
2022/01/14 10:23:15;;;;;;;;;;;;;;;;;;4970522;28;20102;-71
2022/01/14 10:25:41;;;;;;;4.20;1.77;;;;;;;;;;4967147;28;19976;-74
2022/01/14 10:28:20;;;;;;;6.70;1.95;;;;;;;;;;4969791;28;20066;-73
2022/01/14 10:30:48;;;;;;;6.40;1.92;;;;;;;;;;4950982;28;20102;-72
2022/01/14 10:33:14;;;;;;;5.38;1.85;;;;;;;;;;4972402;28;20054;-72
2022/01/14 10:35:45;;;;;;;5.63;1.98;;;;;;;;;;4966929;28;20043;-72
2022/01/14 10:38:13;;;;;;;6.43;2.05;;;;;;;;;;4969967;28;20043;-73
2022/01/14 10:40:49;;;;;;;6.88;2.10;;;;;;;;;;4969644;28;20042;-72
2022/01/14 10:43:17;;;;;;;7.50;2.30;;;;;;;;;;4969076;28;20055;-72
2022/01/14 10:45:43;;;;;;;4.65;1.88;;;;;;;;;;4970157;28;20134;-75
2022/01/14 10:48:11;;;;;;;5.97;2.28;;;;;;;;;;4969145;28;20062;-73
2022/01/14 10:50:43;;;;;;;5.35;2.00;;;;;;;;;;4952238;28;20141;-74
2022/01/14 10:53:17;;;;;;;8.05;2.13;;;;;;;;;;4969719;28;20050;-73
2022/01/14 10:55:50;;;;;;;8.63;2.80;;;;;;;;;;4950818;28;20121;-79
2022/01/14 10:58:36;;;;;;;4.25;1.92;;;;;;;;;;4942887;28;20058;-77
2022/01/14 11:01:22;;;;;;;4.72;2.20;;;;;;;;;;4969241;28;20051;-76
2022/01/14 11:03:53;;;;;;;7.78;2.55;;;;;;;;;;4969361;28;20103;-75
2022/01/14 11:06:19;;;;;;;8.40;2.47;;;;;;;;;;4973531;28;20046;-76
2022/01/14 11:08:46;;;;;;;8.27;2.95;;;;;;;;;;4993536;28;20042;-75
2022/01/14 11:11:13;;;;;;;5.25;2.33;;;;;;;;;;4985175;28;20050;-76
2022/01/14 11:13:39;;;;;;;7.75;2.65;;;;;;;;;;4956436;28;20057;-74
2022/01/14 11:16:06;;;;;;;9.38;2.55;;;;;;;;;;4991611;28;20058;-75
2022/01/14 11:18:32;;;;;;;6.28;2.28;;;;;;;;;;4992893;28;20163;-75
2022/01/14 11:23:43;;;;;;;5.35;2.47;;;;;;;;;;4981544;28;20469;-74
2022/01/14 11:26:11;;;;;;;6.97;2.67;;;;;;;;;;4971934;28;20046;-74
2022/01/14 11:28:38;;;;;;;7.97;2.47;;;;;;;;;;4956454;28;20062;-74
2022/01/14 11:31:23;;;;;;;5.30;2.17;;;;;;;;;;4972022;28;20043;-75
2022/01/14 11:33:49;;;;;;;6.65;2.40;;;;;;;;;;4982389;28;20488;-73
2022/01/14 11:36:16;;;;;;;9.32;2.83;;;;;;;;;;4992574;28;20108;-74
2022/01/14 11:38:43;;;;;;;6.30;2.58;;;;;;;;;;4979050;28;20138;-73
2022/01/14 11:41:16;;;;;;;6.70;2.40;;;;;;;;;;4987010;28;20413;-74
2022/01/14 11:43:54;;;;;;;6.10;1.95;;;;;;;;;;4991991;28;20046;-73
2022/01/14 11:46:32;;;;;;;6.20;2.10;;;;;;;;;;4973506;28;20117;-72
2022/01/14 11:48:59;;;;;;;5.63;2.40;;;;;;;;;;4972785;28;20548;-72
2022/01/14 11:51:25;;;;;;;5.88;2.08;;;;;;;;;;4970886;28;20113;-73
2022/01/14 11:53:52;;;;;;;7.05;2.10;;;;;;;;;;4972374;28;20066;-72
2022/01/14 11:56:33;;;;;;;5.80;2.65;;;;;;;;;;4972725;28;20082;-73
2022/01/14 11:59:18;;;;;;;7.20;2.10;;;;;;;;;;4986316;28;20089;-73
2022/01/14 12:01:47;;;;;;;7.05;2.50;;;;;;;;;;4991037;28;20567;-73
2022/01/14 12:04:14;;;;;;;7.65;2.50;;;;;;;;;;4986236;28;20059;-73
2022/01/14 12:06:59;;;;;;;6.72;2.38;;;;;;;;;;4972168;28;20043;-73
2022/01/14 12:09:32;;;;;;;6.63;2.25;;;;;;;;;;4971025;28;20050;-73
2022/01/14 12:12:17;;;;;;;13.48;2.75;;;;;;;;;;4971198;28;20050;-75
2022/01/14 12:14:55;;;;;;;9.05;2.40;;;;;;;;;;4971285;28;20038;-75
2022/01/14 12:17:31;;;;;;;7.25;2.33;;;;;;;;;;4971745;28;20125;-74
2022/01/14 12:20:06;;;;;;;6.25;2.20;;;;;;;;;;4972289;28;20412;-75
2022/01/14 12:22:32;;;;;;;7.50;2.67;;;;;;;;;;4972010;28;20106;-74
2022/01/14 12:24:58;;;;;;;7.18;2.30;;;;;;;;;;4972050;28;20051;-74
2022/01/14 12:27:25;;;;;;;5.88;2.08;;;;;;;;;;4972341;28;20094;-75
2022/01/14 12:30:00;;;;;;;8.65;3.17;;;;;;;;;;4972108;28;20085;-75
2022/01/14 12:32:29;;;;;;;7.97;2.60;;;;;;;;;;4971323;28;20165;-75
2022/01/14 12:34:55;;;;;;;7.38;2.60;;;;;;;;;;4972064;28;20055;-74
2022/01/14 12:37:24;;;;;;;6.85;2.30;;;;;;;;;;4972260;28;20739;-75
2022/01/14 12:39:50;;;;;;;5.53;2.15;;;;;;;;;;4972098;28;20134;-74
2022/01/14 12:42:18;;;;;;;10.68;2.28;;;;;;;;;;4971632;28;20050;-75
2022/01/14 12:44:46;;;;;;;5.60;2.08;;;;;;;;;;4972010;28;20038;-75
2022/01/14 12:47:19;;;;;;;6.53;2.47;;;;;;;;;;4970560;28;20180;-74
2022/01/14 12:49:45;;;;;;;6.70;2.00;;;;;;;;;;4971556;28;20075;-74
2022/01/14 12:52:14;;;;;;;5.95;2.40;;;;;;;;;;4971834;28;20043;-74
2022/01/14 12:54:42;;;;;;;6.32;1.92;;;;;;;;;;4972130;28;20058;-74
2022/01/14 12:57:08;;;;;;;7.50;2.20;;;;;;;;;;4971429;28;20139;-74
2022/01/14 12:59:44;;;;;;;8.88;2.63;;;;;;;;;;4971576;28;20193;-74
2022/01/14 13:02:16;;;;;;;6.45;2.20;;;;;;;;;;4954576;28;20047;-74
2022/01/14 13:04:42;;;;;;;6.20;1.95;;;;;;;;;;4971044;28;20054;-74
2022/01/14 13:07:09;;;;;;;6.55;2.22;;;;;;;;;;4971426;28;20053;-74
2022/01/14 13:09:36;;;;;;;7.85;2.20;;;;;;;;;;4971609;28;20077;-74
2022/01/14 13:12:04;;;;;;;4.88;1.65;;;;;;;;;;4969971;28;20051;-74
2022/01/14 13:14:35;;;;;;;5.78;2.42;;;;;;;;;;4970188;28;20051;-74
2022/01/14 13:17:03;;;;;;;7.35;2.35;;;;;;;;;;4953416;28;20464;-73
2022/01/14 13:19:30;;;;;;;5.72;2.08;;;;;;;;;;4971279;28;20047;-73
2022/01/14 13:21:57;;;;;;;4.72;1.95;;;;;;;;;;4971288;28;20082;-72
2022/01/14 13:24:28;;;;;;;7.05;2.33;;;;;;;;;;4971110;28;20125;-73
2022/01/14 13:27:06;;;;;;;5.93;2.40;;;;;;;;;;4970694;28;20049;-73
2022/01/14 13:29:46;;;;;;;6.18;1.75;;;;;;;;;;4970937;28;20054;-72
2022/01/14 13:32:14;;;;;;;5.60;1.95;;;;;;;;;;4970805;28;20473;-73
2022/01/14 13:34:44;;;;;;;6.05;2.03;;;;;;;;;;4971037;28;20089;-72
2022/01/14 13:37:10;;;;;;;8.00;2.88;;;;;;;;;;4970564;28;20054;-72
2022/01/14 13:39:37;;;;;;;5.28;1.92;;;;;;;;;;4971201;28;20282;-72
2022/01/14 13:42:03;;;;;;;6.90;1.90;;;;;;;;;;4971050;28;20506;-71
2022/01/14 13:44:33;;;;;;;7.30;2.22;;;;;;;;;;4969882;28;20039;-72
2022/01/14 13:47:02;;;;;;;7.20;2.35;;;;;;;;;;4969619;28;20082;-74
2022/01/14 13:49:28;;;;;;;5.30;2.00;;;;;;;;;;4970267;28;20133;-72
2022/01/14 13:52:11;;;;;;;5.95;1.83;;;;;;;;;;4970554;28;20481;-72
2022/01/14 13:54:37;;;;;;;8.10;2.10;;;;;;;;;;4970617;28;20051;-73
2022/01/14 13:57:10;;;;;;;7.70;2.30;;;;;;;;;;4970534;28;20061;-72
2022/01/14 13:59:36;;;;;;;7.55;2.10;;;;;;;;;;4969391;28;20105;-72
2022/01/14 14:02:05;;;;;;;6.05;2.10;;;;;;;;;;4970484;28;20053;-72
2022/01/14 14:04:35;;;;;;;9.88;2.60;;;;;;;;;;4969983;28;20047;-72
2022/01/14 14:07:10;;;;;;;5.65;2.40;;;;;;;;;;4969232;28;20061;-72
2022/01/14 14:09:45;;;;;;;7.03;2.00;;;;;;;;;;4968751;28;20051;-72
2022/01/14 14:12:27;;;;;;;6.20;2.22;;;;;;;;;;4967429;28;20103;-72
2022/01/14 14:17:38;;;;;;;9.90;2.28;;;;;;;;;;4967173;28;20051;-73
2022/01/14 14:20:06;;;;;;;6.15;2.03;;;;;;;;;;4968817;28;20113;-73
2022/01/14 14:22:34;;;;;;;9.52;2.25;;;;;;;;;;4968469;28;20408;-71
2022/01/14 14:25:02;;;;;;;7.53;2.20;;;;;;;;;;4968566;28;20053;-72
2022/01/14 14:27:29;;;;;;;5.33;2.23;;;;;;;;;;4966174;28;20461;-72
2022/01/14 14:29:56;;;;;;;8.88;2.10;;;;;;;;;;4968189;28;20047;-72
2022/01/14 14:32:29;;;;;;;7.32;1.92;;;;;;;;;;4967673;28;20370;-71
2022/01/14 14:34:56;;;;;;;6.13;1.90;;;;;;;;;;4967413;28;20421;-71
2022/01/14 14:37:22;;;;;;;5.70;1.80;;;;;;;;;;4967962;28;20098;-71
2022/01/14 14:39:48;;;;;;;6.03;2.08;;;;;;;;;;4967190;28;20446;-71
2022/01/14 14:42:14;;;;;;;6.90;1.80;;;;;;;;;;4967752;28;20063;-70
2022/01/14 14:44:40;;;;;;;9.23;2.70;;;;;;;;;;4968270;28;20047;-70
2022/01/14 14:47:07;;;;;;;9.93;2.15;;;;;;;;;;4967661;28;20172;-72
2022/01/14 14:49:34;;;;;;;10.02;2.33;;;;;;;;;;4967744;28;20504;-72
2022/01/14 14:52:01;;;;;;;9.73;2.05;;;;;;;;;;4968076;28;20110;-72
2022/01/14 14:54:27;;;;;;;7.10;1.85;;;;;;;;;;4966016;28;20476;-72
2022/01/14 14:56:53;;;;;;;6.32;1.77;;;;;;;;;;4968540;28;20074;-74
2022/01/14 14:59:19;;;;;;;6.90;1.90;;;;;;;;;;4968960;28;20038;-75
2022/01/14 15:01:45;;;;;;;6.13;1.70;;;;;;;;;;4966841;28;20576;-73
2022/01/14 15:04:11;;;;;;;4.68;1.55;;;;;;;;;;4968781;28;20089;-74
2022/01/14 15:06:38;;;;;;;6.18;1.75;;;;;;;;;;4968190;28;20057;-74
2022/01/14 15:09:05;;;;;;;6.97;2.15;;;;;;;;;;4966088;28;20134;-74
2022/01/14 15:11:31;;;;;;;5.50;1.52;;;;;;;;;;4966132;28;20446;-75
2022/01/14 15:13:58;;;;;;;8.70;1.83;;;;;;;;;;4967331;28;20039;-73